sensor_id;sensor_type;location;lat;lon;timestamp;P1;durP1;ratioP1;P2;durP2;ratioP2
78674;SDS011;67990;59.826;30.108;2023-02-19T11:14:17;6.13;;;3.70;;
78674;SDS011;67990;59.826;30.108;2023-02-19T11:16:46;7.63;;;4.32;;
78674;SDS011;67990;59.826;30.108;2023-02-19T11:19:32;7.10;;;3.80;;
78674;SDS011;67990;59.826;30.108;2023-02-19T11:22:02;9.63;;;4.78;;
78674;SDS011;67990;59.826;30.108;2023-02-19T11:24:54;8.65;;;4.10;;
78674;SDS011;67990;59.826;30.108;2023-02-19T11:27:25;7.53;;;4.43;;
78674;SDS011;67990;59.826;30.108;2023-02-19T11:29:52;7.90;;;4.10;;
78674;SDS011;67990;59.826;30.108;2023-02-19T11:32:24;10.63;;;4.80;;
78674;SDS011;67990;59.826;30.108;2023-02-19T11:35:15;10.80;;;5.80;;
78674;SDS011;67990;59.826;30.108;2023-02-19T11:37:53;11.45;;;5.78;;
78674;SDS011;67990;59.826;30.108;2023-02-19T11:40:23;13.95;;;6.00;;
78674;SDS011;67990;59.826;30.108;2023-02-19T11:43:01;13.00;;;5.77;;
78674;SDS011;67990;59.826;30.108;2023-02-19T11:45:39;12.37;;;6.33;;
78674;SDS011;67990;59.826;30.108;2023-02-19T11:48:31;13.70;;;7.30;;
78674;SDS011;67990;59.826;30.108;2023-02-19T11:51:14;17.27;;;8.02;;
78674;SDS011;67990;59.826;30.108;2023-02-19T11:54:05;15.93;;;7.82;;
78674;SDS011;67990;59.826;30.108;2023-02-19T11:56:43;14.27;;;8.45;;
78674;SDS011;67990;59.826;30.108;2023-02-19T11:59:19;16.47;;;8.67;;
78674;SDS011;67990;59.826;30.108;2023-02-19T12:02:01;19.40;;;9.20;;
78674;SDS011;67990;59.826;30.108;2023-02-19T12:04:57;20.52;;;10.73;;
78674;SDS011;67990;59.826;30.108;2023-02-19T12:07:56;20.63;;;10.45;;
78674;SDS011;67990;59.826;30.108;2023-02-19T12:10:48;19.55;;;10.15;;
78674;SDS011;67990;59.826;30.108;2023-02-19T12:13:28;20.60;;;11.07;;
78674;SDS011;67990;59.826;30.108;2023-02-19T12:16:17;25.27;;;11.47;;
78674;SDS011;67990;59.826;30.108;2023-02-19T12:18:55;23.70;;;11.17;;
78674;SDS011;67990;59.826;30.108;2023-02-19T12:21:40;23.27;;;11.90;;
78674;SDS011;67990;59.826;30.108;2023-02-19T12:24:24;23.42;;;12.32;;
78674;SDS011;67990;59.826;30.108;2023-02-19T12:27:14;24.77;;;12.10;;
78674;SDS011;67990;59.826;30.108;2023-02-19T12:29:56;23.20;;;11.88;;
78674;SDS011;67990;59.826;30.108;2023-02-19T12:32:34;22.40;;;11.27;;
78674;SDS011;67990;59.826;30.108;2023-02-19T12:35:31;24.57;;;11.30;;
78674;SDS011;67990;59.826;30.108;2023-02-19T12:38:10;25.25;;;11.73;;
78674;SDS011;67990;59.826;30.108;2023-02-19T12:40:52;19.67;;;10.40;;
78674;SDS011;67990;59.826;30.108;2023-02-19T12:43:37;18.85;;;10.55;;
78674;SDS011;67990;59.826;30.108;2023-02-19T12:46:11;23.35;;;11.38;;
78674;SDS011;67990;59.826;30.108;2023-02-19T12:48:44;21.75;;;11.75;;
78674;SDS011;67990;59.826;30.108;2023-02-19T12:51:18;20.10;;;10.50;;
78674;SDS011;67990;59.826;30.108;2023-02-19T12:53:51;19.33;;;10.60;;
78674;SDS011;67990;59.826;30.108;2023-02-19T12:56:24;21.63;;;10.30;;
78674;SDS011;67990;59.826;30.108;2023-02-19T12:58:55;17.58;;;9.57;;
78674;SDS011;67990;59.826;30.108;2023-02-19T13:01:29;17.80;;;9.50;;
78674;SDS011;67990;59.826;30.108;2023-02-19T13:04:13;17.48;;;8.85;;
